sensor_id;sensor_type;location;lat;lon;timestamp;temperature;humidity
58517;DHT22;44308;50.810;0.284;2022-09-12T00:00:30;15.10;99.90
58517;DHT22;44308;50.810;0.284;2022-09-12T00:02:58;15.00;99.90
58517;DHT22;44308;50.810;0.284;2022-09-12T00:05:25;15.00;99.90
58517;DHT22;44308;50.810;0.284;2022-09-12T00:07:50;15.00;99.90
58517;DHT22;44308;50.810;0.284;2022-09-12T00:10:16;15.00;99.90
58517;DHT22;44308;50.810;0.284;2022-09-12T00:12:42;15.00;99.90
58517;DHT22;44308;50.810;0.284;2022-09-12T00:15:08;15.00;99.90
58517;DHT22;44308;50.810;0.284;2022-09-12T00:17:36;14.90;99.90
58517;DHT22;44308;50.810;0.284;2022-09-12T00:20:04;14.90;99.90
58517;DHT22;44308;50.810;0.284;2022-09-12T00:22:31;14.90;99.90
58517;DHT22;44308;50.810;0.284;2022-09-12T00:24:57;14.90;99.90
58517;DHT22;44308;50.810;0.284;2022-09-12T00:27:23;14.80;99.90
58517;DHT22;44308;50.810;0.284;2022-09-12T00:29:48;14.70;99.90
58517;DHT22;44308;50.810;0.284;2022-09-12T00:32:14;14.70;99.90
58517;DHT22;44308;50.810;0.284;2022-09-12T00:34:40;14.70;99.90
58517;DHT22;44308;50.810;0.284;2022-09-12T00:37:05;14.70;99.90
58517;DHT22;44308;50.810;0.284;2022-09-12T00:39:31;14.60;99.90
58517;DHT22;44308;50.810;0.284;2022-09-12T00:41:57;14.50;99.90
58517;DHT22;44308;50.810;0.284;2022-09-12T00:46:53;14.50;99.90
58517;DHT22;44308;50.810;0.284;2022-09-12T00:49:35;14.40;99.90
58517;DHT22;44308;50.810;0.284;2022-09-12T00:52:06;14.50;99.90
58517;DHT22;44308;50.810;0.284;2022-09-12T00:54:49;14.40;99.90
58517;DHT22;44308;50.810;0.284;2022-09-12T00:57:20;14.40;99.90
58517;DHT22;44308;50.810;0.284;2022-09-12T00:59:54;14.40;99.90
58517;DHT22;44308;50.810;0.284;2022-09-12T01:02:21;14.30;99.90
58517;DHT22;44308;50.810;0.284;2022-09-12T01:04:47;14.30;99.90
58517;DHT22;44308;50.810;0.284;2022-09-12T01:07:13;14.30;99.90
58517;DHT22;44308;50.810;0.284;2022-09-12T01:09:41;14.30;99.90
58517;DHT22;44308;50.810;0.284;2022-09-12T01:12:08;14.30;99.90
58517;DHT22;44308;50.810;0.284;2022-09-12T01:14:34;14.30;99.90
58517;DHT22;44308;50.810;0.284;2022-09-12T01:17:01;14.30;99.90
58517;DHT22;44308;50.810;0.284;2022-09-12T01:27:42;14.30;99.90
58517;DHT22;44308;50.810;0.284;2022-09-12T01:36:19;14.20;99.90
58517;DHT22;44308;50.810;0.284;2022-09-12T01:38:42;14.30;99.90
58517;DHT22;44308;50.810;0.284;2022-09-12T01:41:32;14.40;99.90
58517;DHT22;44308;50.810;0.284;2022-09-12T01:46:55;14.30;99.90
58517;DHT22;44308;50.810;0.284;2022-09-12T01:49:35;14.40;99.90
58517;DHT22;44308;50.810;0.284;2022-09-12T01:52:19;14.40;99.90
58517;DHT22;44308;50.810;0.284;2022-09-12T01:54:50;14.50;99.90
58517;DHT22;44308;50.810;0.284;2022-09-12T01:57:34;14.60;99.90
58517;DHT22;44308;50.810;0.284;2022-09-12T02:00:09;14.70;99.90
58517;DHT22;44308;50.810;0.284;2022-09-12T02:07:42;14.70;99.90
58517;DHT22;44308;50.810;0.284;2022-09-12T02:10:13;14.80;99.90
58517;DHT22;44308;50.810;0.284;2022-09-12T02:12:47;14.80;99.90
58517;DHT22;44308;50.810;0.284;2022-09-12T02:15:17;14.90;99.90
58517;DHT22;44308;50.810;0.284;2022-09-12T02:17:46;15.10;99.90
58517;DHT22;44308;50.810;0.284;2022-09-12T02:20:21;15.30;99.90
58517;DHT22;44308;50.810;0.284;2022-09-12T02:22:50;15.40;99.90
58517;DHT22;44308;50.810;0.284;2022-09-12T02:25:18;15.50;99.90
58517;DHT22;44308;50.810;0.284;2022-09-12T02:27:48;15.70;99.90
58517;DHT22;44308;50.810;0.284;2022-09-12T02:30:14;15.90;99.90
58517;DHT22;44308;50.810;0.284;2022-09-12T02:32:59;16.00;99.90
58517;DHT22;44308;50.810;0.284;2022-09-12T02:35:48;16.10;99.90
58517;DHT22;44308;50.810;0.284;2022-09-12T02:38:28;16.10;99.90
58517;DHT22;44308;50.810;0.284;2022-09-12T02:40:57;16.10;99.90
58517;DHT22;44308;50.810;0.284;2022-09-12T02:43:23;16.10;99.90
58517;DHT22;44308;50.810;0.284;2022-09-12T02:45:49;16.00;99.90
58517;DHT22;44308;50.810;0.284;2022-09-12T02:48:24;16.00;99.90
58517;DHT22;44308;50.810;0.284;2022-09-12T02:50:51;16.00;99.90
58517;DHT22;44308;50.810;0.284;2022-09-12T02:53:18;15.90;99.90
58517;DHT22;44308;50.810;0.284;2022-09-12T02:55:44;15.90;99.90
58517;DHT22;44308;50.810;0.284;2022-09-12T02:58:15;16.10;99.90
58517;DHT22;44308;50.810;0.284;2022-09-12T03:01:10;16.10;99.90
58517;DHT22;44308;50.810;0.284;2022-09-12T03:09:13;16.00;99.90
58517;DHT22;44308;50.810;0.284;2022-09-12T03:20:08;16.00;99.90
58517;DHT22;44308;50.810;0.284;2022-09-12T03:28:08;15.60;99.90
58517;DHT22;44308;50.810;0.284;2022-09-12T03:30:46;15.60;99.90
58517;DHT22;44308;50.810;0.284;2022-09-12T03:33:17;15.60;99.90
58517;DHT22;44308;50.810;0.284;2022-09-12T03:35:44;15.50;99.90
58517;DHT22;44308;50.810;0.284;2022-09-12T03:38:10;15.50;99.90
58517;DHT22;44308;50.810;0.284;2022-09-12T03:40:37;15.50;99.90
58517;DHT22;44308;50.810;0.284;2022-09-12T03:43:04;15.60;99.90
58517;DHT22;44308;50.810;0.284;2022-09-12T03:45:30;15.70;99.90
58517;DHT22;44308;50.810;0.284;2022-09-12T03:47:56;15.70;99.90
58517;DHT22;44308;50.810;0.284;2022-09-12T03:50:22;15.80;99.90
58517;DHT22;44308;50.810;0.284;2022-09-12T03:52:48;15.80;99.90
58517;DHT22;44308;50.810;0.284;2022-09-12T03:55:14;15.90;99.90
58517;DHT22;44308;50.810;0.284;2022-09-12T03:57:39;15.90;99.90
58517;DHT22;44308;50.810;0.284;2022-09-12T04:00:06;15.90;99.90
58517;DHT22;44308;50.810;0.284;2022-09-12T04:02:33;15.90;99.90
58517;DHT22;44308;50.810;0.284;2022-09-12T04:04:59;15.80;99.90
58517;DHT22;44308;50.810;0.284;2022-09-12T04:07:25;15.80;99.90
58517;DHT22;44308;50.810;0.284;2022-09-12T04:09:51;15.70;99.90
58517;DHT22;44308;50.810;0.284;2022-09-12T04:12:18;15.70;99.90
58517;DHT22;44308;50.810;0.284;2022-09-12T04:14:44;15.90;99.90
58517;DHT22;44308;50.810;0.284;2022-09-12T04:17:10;15.80;99.90
58517;DHT22;44308;50.810;0.284;2022-09-12T04:19:36;15.90;99.90
58517;DHT22;44308;50.810;0.284;2022-09-12T04:22:02;15.80;99.90
58517;DHT22;44308;50.810;0.284;2022-09-12T04:24:29;15.70;99.90
58517;DHT22;44308;50.810;0.284;2022-09-12T04:26:55;15.90;99.90
58517;DHT22;44308;50.810;0.284;2022-09-12T04:29:21;15.80;99.90
58517;DHT22;44308;50.810;0.284;2022-09-12T04:31:46;15.80;99.90
58517;DHT22;44308;50.810;0.284;2022-09-12T04:34:13;15.70;99.90
58517;DHT22;44308;50.810;0.284;2022-09-12T04:36:40;15.70;99.90
58517;DHT22;44308;50.810;0.284;2022-09-12T04:39:05;15.70;99.90
58517;DHT22;44308;50.810;0.284;2022-09-12T04:41:36;15.60;99.90
58517;DHT22;44308;50.810;0.284;2022-09-12T04:44:09;15.60;99.90
58517;DHT22;44308;50.810;0.284;2022-09-12T04:46:38;15.60;99.90
58517;DHT22;44308;50.810;0.284;2022-09-12T04:49:04;15.40;99.90
58517;DHT22;44308;50.810;0.284;2022-09-12T04:51:35;15.30;99.90
58517;DHT22;44308;50.810;0.284;2022-09-12T04:54:08;15.40;99.90
58517;DHT22;44308;50.810;0.284;2022-09-12T04:56:40;15.30;99.90
58517;DHT22;44308;50.810;0.284;2022-09-12T04:59:06;15.40;99.90
58517;DHT22;44308;50.810;0.284;2022-09-12T05:01:33;15.30;99.90
58517;DHT22;44308;50.810;0.284;2022-09-12T05:03:59;15.40;99.90
58517;DHT22;44308;50.810;0.284;2022-09-12T05:06:27;15.20;99.90
58517;DHT22;44308;50.810;0.284;2022-09-12T05:08:55;15.30;99.90
58517;DHT22;44308;50.810;0.284;2022-09-12T05:11:27;15.30;99.90
58517;DHT22;44308;50.810;0.284;2022-09-12T05:13:54;15.00;99.90
58517;DHT22;44308;50.810;0.284;2022-09-12T05:16:21;15.00;99.90
58517;DHT22;44308;50.810;0.284;2022-09-12T05:18:47;15.10;99.90
58517;DHT22;44308;50.810;0.284;2022-09-12T05:21:16;15.10;99.90
58517;DHT22;44308;50.810;0.284;2022-09-12T05:23:42;15.10;99.90
58517;DHT22;44308;50.810;0.284;2022-09-12T05:26:12;15.10;99.90
58517;DHT22;44308;50.810;0.284;2022-09-12T05:28:38;15.10;99.90
58517;DHT22;44308;50.810;0.284;2022-09-12T05:31:10;15.10;99.90
58517;DHT22;44308;50.810;0.284;2022-09-12T05:33:38;15.10;99.90
58517;DHT22;44308;50.810;0.284;2022-09-12T05:36:06;15.10;99.90
58517;DHT22;44308;50.810;0.284;2022-09-12T05:38:36;15.10;99.90
58517;DHT22;44308;50.810;0.284;2022-09-12T05:41:14;15.10;99.90
58517;DHT22;44308;50.810;0.284;2022-09-12T05:43:40;15.00;99.90
58517;DHT22;44308;50.810;0.284;2022-09-12T05:46:15;15.10;99.90
58517;DHT22;44308;50.810;0.284;2022-09-12T05:48:42;15.10;99.90
58517;DHT22;44308;50.810;0.284;2022-09-12T05:51:12;15.10;99.90
58517;DHT22;44308;50.810;0.284;2022-09-12T05:53:39;14.90;99.90
58517;DHT22;44308;50.810;0.284;2022-09-12T05:56:18;15.00;99.90
58517;DHT22;44308;50.810;0.284;2022-09-12T05:58:46;15.00;99.90
58517;DHT22;44308;50.810;0.284;2022-09-12T06:01:16;15.00;99.90
58517;DHT22;44308;50.810;0.284;2022-09-12T06:03:48;15.10;99.90
58517;DHT22;44308;50.810;0.284;2022-09-12T06:06:15;15.20;99.90
58517;DHT22;44308;50.810;0.284;2022-09-12T06:08:44;15.30;99.90
58517;DHT22;44308;50.810;0.284;2022-09-12T06:11:14;15.40;99.90
58517;DHT22;44308;50.810;0.284;2022-09-12T06:13:41;15.60;99.90
58517;DHT22;44308;50.810;0.284;2022-09-12T06:18:35;15.80;99.90
58517;DHT22;44308;50.810;0.284;2022-09-12T06:21:10;16.20;99.90
58517;DHT22;44308;50.810;0.284;2022-09-12T06:23:36;16.90;99.90
58517;DHT22;44308;50.810;0.284;2022-09-12T06:26:03;17.70;99.90
58517;DHT22;44308;50.810;0.284;2022-09-12T06:28:30;18.40;99.90
58517;DHT22;44308;50.810;0.284;2022-09-12T06:31:09;18.80;99.90
58517;DHT22;44308;50.810;0.284;2022-09-12T06:33:39;19.40;99.90
58517;DHT22;44308;50.810;0.284;2022-09-12T06:36:08;19.90;99.90
58517;DHT22;44308;50.810;0.284;2022-09-12T06:38:35;20.60;99.90
58517;DHT22;44308;50.810;0.284;2022-09-12T06:41:03;21.00;99.90
58517;DHT22;44308;50.810;0.284;2022-09-12T06:43:30;21.60;99.90
58517;DHT22;44308;50.810;0.284;2022-09-12T06:45:56;21.60;99.90
58517;DHT22;44308;50.810;0.284;2022-09-12T06:48:22;21.60;99.90
58517;DHT22;44308;50.810;0.284;2022-09-12T06:50:59;22.30;99.90
58517;DHT22;44308;50.810;0.284;2022-09-12T06:53:26;22.90;99.90
58517;DHT22;44308;50.810;0.284;2022-09-12T06:55:56;23.40;99.90
58517;DHT22;44308;50.810;0.284;2022-09-12T06:58:22;23.80;99.90
58517;DHT22;44308;50.810;0.284;2022-09-12T07:00:48;23.90;99.90
58517;DHT22;44308;50.810;0.284;2022-09-12T07:03:14;24.00;99.90
58517;DHT22;44308;50.810;0.284;2022-09-12T07:05:40;24.00;99.90
58517;DHT22;44308;50.810;0.284;2022-09-12T07:08:05;23.60;99.90
58517;DHT22;44308;50.810;0.284;2022-09-12T07:10:31;23.40;99.90
58517;DHT22;44308;50.810;0.284;2022-09-12T07:12:57;22.80;99.90
58517;DHT22;44308;50.810;0.284;2022-09-12T07:15:23;22.30;99.90
58517;DHT22;44308;50.810;0.284;2022-09-12T07:17:49;21.90;99.90
58517;DHT22;44308;50.810;0.284;2022-09-12T07:20:14;21.90;99.90
58517;DHT22;44308;50.810;0.284;2022-09-12T07:22:41;21.70;99.90
58517;DHT22;44308;50.810;0.284;2022-09-12T07:25:07;21.50;99.90
58517;DHT22;44308;50.810;0.284;2022-09-12T07:27:33;21.20;99.90
58517;DHT22;44308;50.810;0.284;2022-09-12T07:29:59;21.40;99.90
58517;DHT22;44308;50.810;0.284;2022-09-12T07:32:25;22.00;99.90
58517;DHT22;44308;50.810;0.284;2022-09-12T07:34:51;22.70;99.90
58517;DHT22;44308;50.810;0.284;2022-09-12T07:37:17;23.30;99.90
58517;DHT22;44308;50.810;0.284;2022-09-12T07:39:42;23.90;99.90
58517;DHT22;44308;50.810;0.284;2022-09-12T07:42:08;24.10;99.90
58517;DHT22;44308;50.810;0.284;2022-09-12T07:44:35;24.30;99.90
58517;DHT22;44308;50.810;0.284;2022-09-12T07:47:01;24.70;99.90
58517;DHT22;44308;50.810;0.284;2022-09-12T07:49:27;25.50;99.90
58517;DHT22;44308;50.810;0.284;2022-09-12T07:51:53;25.20;99.90
58517;DHT22;44308;50.810;0.284;2022-09-12T07:54:19;24.60;99.90
58517;DHT22;44308;50.810;0.284;2022-09-12T07:56:44;23.80;99.90
58517;DHT22;44308;50.810;0.284;2022-09-12T07:59:10;23.60;99.90
58517;DHT22;44308;50.810;0.284;2022-09-12T08:01:36;24.00;99.90
58517;DHT22;44308;50.810;0.284;2022-09-12T08:04:02;24.70;99.90
58517;DHT22;44308;50.810;0.284;2022-09-12T08:06:29;24.40;99.90
58517;DHT22;44308;50.810;0.284;2022-09-12T08:08:58;24.30;99.90
58517;DHT22;44308;50.810;0.284;2022-09-12T08:11:25;24.10;99.90
58517;DHT22;44308;50.810;0.284;2022-09-12T08:13:53;23.80;99.90
58517;DHT22;44308;50.810;0.284;2022-09-12T08:16:21;23.50;99.90
58517;DHT22;44308;50.810;0.284;2022-09-12T08:18:48;23.10;99.90
58517;DHT22;44308;50.810;0.284;2022-09-12T08:21:16;22.90;99.90
58517;DHT22;44308;50.810;0.284;2022-09-12T08:23:43;22.90;99.90
58517;DHT22;44308;50.810;0.284;2022-09-12T08:26:09;23.30;99.90
58517;DHT22;44308;50.810;0.284;2022-09-12T08:28:36;23.20;99.90
58517;DHT22;44308;50.810;0.284;2022-09-12T08:31:13;23.30;99.90
58517;DHT22;44308;50.810;0.284;2022-09-12T08:33:39;23.50;99.90
58517;DHT22;44308;50.810;0.284;2022-09-12T08:36:06;23.60;99.90
58517;DHT22;44308;50.810;0.284;2022-09-12T08:38:34;23.70;99.90
58517;DHT22;44308;50.810;0.284;2022-09-12T08:49:12;23.00;99.90
58517;DHT22;44308;50.810;0.284;2022-09-12T08:51:40;23.30;99.90
58517;DHT22;44308;50.810;0.284;2022-09-12T08:54:24;23.70;99.90
58517;DHT22;44308;50.810;0.284;2022-09-12T08:56:57;24.10;99.90
58517;DHT22;44308;50.810;0.284;2022-09-12T08:59:24;24.00;99.90
58517;DHT22;44308;50.810;0.284;2022-09-12T09:01:54;24.20;99.90
58517;DHT22;44308;50.810;0.284;2022-09-12T09:12:31;24.00;99.90
58517;DHT22;44308;50.810;0.284;2022-09-12T09:18:28;24.40;99.90
58517;DHT22;44308;50.810;0.284;2022-09-12T09:21:00;24.70;99.90
58517;DHT22;44308;50.810;0.284;2022-09-12T09:31:14;25.50;99.90
58517;DHT22;44308;50.810;0.284;2022-09-12T09:33:40;26.20;99.90
58517;DHT22;44308;50.810;0.284;2022-09-12T09:39:05;26.30;99.90
58517;DHT22;44308;50.810;0.284;2022-09-12T09:44:11;26.50;99.90
58517;DHT22;44308;50.810;0.284;2022-09-12T09:46:37;26.60;99.90
58517;DHT22;44308;50.810;0.284;2022-09-12T09:49:04;27.20;99.90
58517;DHT22;44308;50.810;0.284;2022-09-12T09:51:37;27.30;99.90
58517;DHT22;44308;50.810;0.284;2022-09-12T09:56:40;26.70;99.90
58517;DHT22;44308;50.810;0.284;2022-09-12T09:59:19;27.20;99.90
58517;DHT22;44308;50.810;0.284;2022-09-12T10:01:59;27.70;99.90
58517;DHT22;44308;50.810;0.284;2022-09-12T10:04:33;26.80;99.90
58517;DHT22;44308;50.810;0.284;2022-09-12T10:07:01;27.10;99.90
58517;DHT22;44308;50.810;0.284;2022-09-12T10:09:33;26.90;99.90
58517;DHT22;44308;50.810;0.284;2022-09-12T10:12:01;26.20;99.90
58517;DHT22;44308;50.810;0.284;2022-09-12T10:14:56;26.00;99.90
58517;DHT22;44308;50.810;0.284;2022-09-12T10:17:23;25.40;99.90
58517;DHT22;44308;50.810;0.284;2022-09-12T10:19:50;25.20;99.90
58517;DHT22;44308;50.810;0.284;2022-09-12T10:22:20;25.10;99.90
58517;DHT22;44308;50.810;0.284;2022-09-12T10:24:48;25.40;99.90
58517;DHT22;44308;50.810;0.284;2022-09-12T10:27:19;25.90;99.90
58517;DHT22;44308;50.810;0.284;2022-09-12T10:29:55;26.00;99.90
58517;DHT22;44308;50.810;0.284;2022-09-12T10:32:28;26.20;99.90
58517;DHT22;44308;50.810;0.284;2022-09-12T10:35:02;26.30;99.90
58517;DHT22;44308;50.810;0.284;2022-09-12T10:37:31;26.00;99.90
58517;DHT22;44308;50.810;0.284;2022-09-12T10:39:59;26.40;99.90
58517;DHT22;44308;50.810;0.284;2022-09-12T10:42:51;27.10;99.90
58517;DHT22;44308;50.810;0.284;2022-09-12T10:45:21;27.40;99.90
58517;DHT22;44308;50.810;0.284;2022-09-12T10:47:49;27.40;99.90
58517;DHT22;44308;50.810;0.284;2022-09-12T10:52:53;25.40;99.90
58517;DHT22;44308;50.810;0.284;2022-09-12T10:55:27;25.00;99.90
58517;DHT22;44308;50.810;0.284;2022-09-12T10:58:03;24.60;99.90
58517;DHT22;44308;50.810;0.284;2022-09-12T11:00:35;24.30;99.90
58517;DHT22;44308;50.810;0.284;2022-09-12T11:03:45;24.20;99.90
58517;DHT22;44308;50.810;0.284;2022-09-12T11:06:18;23.90;99.90
58517;DHT22;44308;50.810;0.284;2022-09-12T11:09:51;23.50;99.90
58517;DHT22;44308;50.810;0.284;2022-09-12T11:12:14;23.30;99.90
58517;DHT22;44308;50.810;0.284;2022-09-12T11:15:11;23.00;99.90
58517;DHT22;44308;50.810;0.284;2022-09-12T11:17:59;23.10;99.90
58517;DHT22;44308;50.810;0.284;2022-09-12T11:23:17;23.00;99.90
58517;DHT22;44308;50.810;0.284;2022-09-12T11:33:46;22.90;99.90
58517;DHT22;44308;50.810;0.284;2022-09-12T11:39:16;23.30;99.90
58517;DHT22;44308;50.810;0.284;2022-09-12T11:41:46;23.70;99.90
58517;DHT22;44308;50.810;0.284;2022-09-12T11:44:21;23.70;99.90
58517;DHT22;44308;50.810;0.284;2022-09-12T11:46:48;24.00;99.90
58517;DHT22;44308;50.810;0.284;2022-09-12T11:49:27;24.10;99.90
58517;DHT22;44308;50.810;0.284;2022-09-12T11:57:34;24.10;99.90
58517;DHT22;44308;50.810;0.284;2022-09-12T12:00:05;24.10;99.90
58517;DHT22;44308;50.810;0.284;2022-09-12T12:02:41;24.00;99.90
58517;DHT22;44308;50.810;0.284;2022-09-12T12:05:42;23.60;99.90
58517;DHT22;44308;50.810;0.284;2022-09-12T12:08:03;23.70;99.90
58517;DHT22;44308;50.810;0.284;2022-09-12T12:10:42;24.20;99.90
58517;DHT22;44308;50.810;0.284;2022-09-12T12:16:24;24.40;99.90
58517;DHT22;44308;50.810;0.284;2022-09-12T12:18:55;24.40;99.90
58517;DHT22;44308;50.810;0.284;2022-09-12T12:34:30;25.10;99.90
58517;DHT22;44308;50.810;0.284;2022-09-12T12:36:57;25.50;99.90
58517;DHT22;44308;50.810;0.284;2022-09-12T12:42:02;25.40;99.90
58517;DHT22;44308;50.810;0.284;2022-09-12T12:47:20;25.30;99.90
58517;DHT22;44308;50.810;0.284;2022-09-12T12:52:29;24.80;99.90
58517;DHT22;44308;50.810;0.284;2022-09-12T12:55:00;24.50;99.90
58517;DHT22;44308;50.810;0.284;2022-09-12T12:57:29;24.50;99.90
58517;DHT22;44308;50.810;0.284;2022-09-12T13:00:07;24.20;99.90
58517;DHT22;44308;50.810;0.284;2022-09-12T13:05:53;24.20;99.90
58517;DHT22;44308;50.810;0.284;2022-09-12T13:08:32;24.20;99.90
58517;DHT22;44308;50.810;0.284;2022-09-12T13:13:39;24.40;99.90
58517;DHT22;44308;50.810;0.284;2022-09-12T13:16:08;24.80;99.90
58517;DHT22;44308;50.810;0.284;2022-09-12T13:18:43;24.70;99.90
58517;DHT22;44308;50.810;0.284;2022-09-12T13:21:18;25.00;99.90
58517;DHT22;44308;50.810;0.284;2022-09-12T13:23:59;25.30;99.90
58517;DHT22;44308;50.810;0.284;2022-09-12T13:26:26;25.60;99.90
58517;DHT22;44308;50.810;0.284;2022-09-12T13:31:37;25.80;99.90
58517;DHT22;44308;50.810;0.284;2022-09-12T13:34:04;25.80;99.90
58517;DHT22;44308;50.810;0.284;2022-09-12T13:39:23;25.40;99.90
58517;DHT22;44308;50.810;0.284;2022-09-12T13:47:31;25.60;99.90
58517;DHT22;44308;50.810;0.284;2022-09-12T13:50:00;25.80;99.90
58517;DHT22;44308;50.810;0.284;2022-09-12T13:52:29;25.80;99.90
58517;DHT22;44308;50.810;0.284;2022-09-12T13:54:57;25.80;99.90
58517;DHT22;44308;50.810;0.284;2022-09-12T13:57:38;25.80;99.90
58517;DHT22;44308;50.810;0.284;2022-09-12T14:00:13;25.50;99.90
58517;DHT22;44308;50.810;0.284;2022-09-12T14:02:46;25.80;99.90
58517;DHT22;44308;50.810;0.284;2022-09-12T14:05:21;25.80;99.90
58517;DHT22;44308;50.810;0.284;2022-09-12T14:07:57;25.70;99.90
58517;DHT22;44308;50.810;0.284;2022-09-12T14:10:27;25.60;99.90
58517;DHT22;44308;50.810;0.284;2022-09-12T14:12:55;24.70;99.90
58517;DHT22;44308;50.810;0.284;2022-09-12T14:15:31;24.10;99.90
58517;DHT22;44308;50.810;0.284;2022-09-12T14:17:59;23.90;99.90
58517;DHT22;44308;50.810;0.284;2022-09-12T14:20:27;23.50;99.90
58517;DHT22;44308;50.810;0.284;2022-09-12T14:23:14;23.60;99.90
58517;DHT22;44308;50.810;0.284;2022-09-12T14:25:42;23.80;99.90
58517;DHT22;44308;50.810;0.284;2022-09-12T14:28:13;24.00;99.90
58517;DHT22;44308;50.810;0.284;2022-09-12T14:30:39;23.90;99.90
58517;DHT22;44308;50.810;0.284;2022-09-12T14:38:30;24.30;99.90
58517;DHT22;44308;50.810;0.284;2022-09-12T14:41:00;24.40;99.90
58517;DHT22;44308;50.810;0.284;2022-09-12T14:43:29;24.70;99.90
58517;DHT22;44308;50.810;0.284;2022-09-12T14:46:26;24.90;99.90
58517;DHT22;44308;50.810;0.284;2022-09-12T14:49:01;25.00;99.90
58517;DHT22;44308;50.810;0.284;2022-09-12T14:51:33;25.10;99.90
58517;DHT22;44308;50.810;0.284;2022-09-12T14:54:00;25.50;99.90
58517;DHT22;44308;50.810;0.284;2022-09-12T14:56:39;25.50;99.90
58517;DHT22;44308;50.810;0.284;2022-09-12T15:02:22;25.50;99.90
58517;DHT22;44308;50.810;0.284;2022-09-12T15:04:53;25.30;99.90
58517;DHT22;44308;50.810;0.284;2022-09-12T15:07:32;25.20;99.90
58517;DHT22;44308;50.810;0.284;2022-09-12T15:10:04;25.70;99.90
58517;DHT22;44308;50.810;0.284;2022-09-12T15:12:30;26.00;99.90
58517;DHT22;44308;50.810;0.284;2022-09-12T15:15:15;26.00;99.90
58517;DHT22;44308;50.810;0.284;2022-09-12T15:17:41;26.20;99.90
58517;DHT22;44308;50.810;0.284;2022-09-12T15:20:08;26.60;99.90
58517;DHT22;44308;50.810;0.284;2022-09-12T15:22:35;26.70;99.90
58517;DHT22;44308;50.810;0.284;2022-09-12T15:25:02;26.60;99.90
58517;DHT22;44308;50.810;0.284;2022-09-12T15:27:28;26.10;99.90
58517;DHT22;44308;50.810;0.284;2022-09-12T15:29:54;25.70;99.90
58517;DHT22;44308;50.810;0.284;2022-09-12T15:32:28;25.30;99.90
58517;DHT22;44308;50.810;0.284;2022-09-12T15:34:54;25.10;99.90
58517;DHT22;44308;50.810;0.284;2022-09-12T15:37:22;25.00;99.90
58517;DHT22;44308;50.810;0.284;2022-09-12T15:39:49;24.80;99.90
58517;DHT22;44308;50.810;0.284;2022-09-12T15:42:17;24.90;99.90
58517;DHT22;44308;50.810;0.284;2022-09-12T15:44:43;24.90;99.90
58517;DHT22;44308;50.810;0.284;2022-09-12T15:47:11;24.70;99.90
58517;DHT22;44308;50.810;0.284;2022-09-12T15:49:38;24.70;99.90
58517;DHT22;44308;50.810;0.284;2022-09-12T15:52:06;24.50;99.90
58517;DHT22;44308;50.810;0.284;2022-09-12T15:54:33;24.20;99.90
58517;DHT22;44308;50.810;0.284;2022-09-12T15:56:59;24.10;99.90
58517;DHT22;44308;50.810;0.284;2022-09-12T15:59:28;24.00;99.90
58517;DHT22;44308;50.810;0.284;2022-09-12T16:01:53;23.90;99.90
58517;DHT22;44308;50.810;0.284;2022-09-12T16:04:24;24.00;99.90
58517;DHT22;44308;50.810;0.284;2022-09-12T16:06:50;24.00;99.90
58517;DHT22;44308;50.810;0.284;2022-09-12T16:09:16;24.00;99.90
58517;DHT22;44308;50.810;0.284;2022-09-12T16:11:42;23.90;99.90
58517;DHT22;44308;50.810;0.284;2022-09-12T16:14:12;23.90;99.90
58517;DHT22;44308;50.810;0.284;2022-09-12T16:16:38;23.90;99.90
58517;DHT22;44308;50.810;0.284;2022-09-12T16:19:03;23.80;99.90
58517;DHT22;44308;50.810;0.284;2022-09-12T16:21:29;23.60;99.90
58517;DHT22;44308;50.810;0.284;2022-09-12T16:23:56;23.40;99.90
58517;DHT22;44308;50.810;0.284;2022-09-12T16:26:22;23.30;99.90
58517;DHT22;44308;50.810;0.284;2022-09-12T16:28:54;23.20;99.90
58517;DHT22;44308;50.810;0.284;2022-09-12T16:31:20;23.10;99.90
58517;DHT22;44308;50.810;0.284;2022-09-12T16:33:46;23.10;99.90
58517;DHT22;44308;50.810;0.284;2022-09-12T16:36:14;23.00;99.90
58517;DHT22;44308;50.810;0.284;2022-09-12T16:38:47;23.10;99.90
58517;DHT22;44308;50.810;0.284;2022-09-12T16:41:14;23.10;99.90
58517;DHT22;44308;50.810;0.284;2022-09-12T16:43:40;23.00;99.90
58517;DHT22;44308;50.810;0.284;2022-09-12T16:46:13;22.90;99.90
58517;DHT22;44308;50.810;0.284;2022-09-12T16:48:51;22.80;99.90
58517;DHT22;44308;50.810;0.284;2022-09-12T16:51:19;22.70;99.90
58517;DHT22;44308;50.810;0.284;2022-09-12T16:53:46;22.60;99.90
58517;DHT22;44308;50.810;0.284;2022-09-12T16:56:11;22.60;99.90
58517;DHT22;44308;50.810;0.284;2022-09-12T16:58:39;22.50;99.90
58517;DHT22;44308;50.810;0.284;2022-09-12T17:01:19;22.50;99.90
58517;DHT22;44308;50.810;0.284;2022-09-12T17:03:45;22.60;99.90
58517;DHT22;44308;50.810;0.284;2022-09-12T17:06:14;22.60;99.90
58517;DHT22;44308;50.810;0.284;2022-09-12T17:08:46;22.60;99.90
58517;DHT22;44308;50.810;0.284;2022-09-12T17:11:24;22.60;99.90
58517;DHT22;44308;50.810;0.284;2022-09-12T17:13:54;22.60;99.90
58517;DHT22;44308;50.810;0.284;2022-09-12T17:16:21;22.50;99.90
58517;DHT22;44308;50.810;0.284;2022-09-12T17:18:47;22.50;99.90
58517;DHT22;44308;50.810;0.284;2022-09-12T17:21:14;22.40;99.90
58517;DHT22;44308;50.810;0.284;2022-09-12T17:23:40;22.40;99.90
58517;DHT22;44308;50.810;0.284;2022-09-12T17:26:06;22.40;99.90
58517;DHT22;44308;50.810;0.284;2022-09-12T17:28:32;22.40;99.90
58517;DHT22;44308;50.810;0.284;2022-09-12T17:31:03;22.30;99.90
58517;DHT22;44308;50.810;0.284;2022-09-12T17:33:29;22.30;99.90
58517;DHT22;44308;50.810;0.284;2022-09-12T17:36:00;22.30;99.90
58517;DHT22;44308;50.810;0.284;2022-09-12T17:38:27;22.30;99.90
58517;DHT22;44308;50.810;0.284;2022-09-12T17:40:52;22.20;99.90
58517;DHT22;44308;50.810;0.284;2022-09-12T17:43:18;22.10;99.90
58517;DHT22;44308;50.810;0.284;2022-09-12T17:45:44;22.00;99.90
58517;DHT22;44308;50.810;0.284;2022-09-12T17:48:10;21.90;99.90
58517;DHT22;44308;50.810;0.284;2022-09-12T17:50:38;21.90;99.90
58517;DHT22;44308;50.810;0.284;2022-09-12T17:53:05;21.70;99.90
58517;DHT22;44308;50.810;0.284;2022-09-12T17:55:35;21.70;99.90
58517;DHT22;44308;50.810;0.284;2022-09-12T17:58:01;21.60;99.90
58517;DHT22;44308;50.810;0.284;2022-09-12T18:00:28;21.50;99.90
58517;DHT22;44308;50.810;0.284;2022-09-12T18:03:13;21.50;99.90
58517;DHT22;44308;50.810;0.284;2022-09-12T18:05:47;21.40;99.90
58517;DHT22;44308;50.810;0.284;2022-09-12T18:08:13;21.40;99.90
58517;DHT22;44308;50.810;0.284;2022-09-12T18:10:39;21.30;99.90
58517;DHT22;44308;50.810;0.284;2022-09-12T18:13:05;21.20;99.90
58517;DHT22;44308;50.810;0.284;2022-09-12T18:15:34;21.10;99.90
58517;DHT22;44308;50.810;0.284;2022-09-12T18:18:00;21.10;99.90
58517;DHT22;44308;50.810;0.284;2022-09-12T18:20:26;21.10;99.90